createdAt,value
2018-03-31T00:00:05.944Z,7.62
2018-03-31T00:01:06.421Z,7.62
2018-03-31T00:02:06.411Z,7.69
2018-03-31T00:03:06.529Z,7.62
2018-03-31T00:04:05.904Z,7.62
2018-03-31T00:05:06.506Z,7.62
2018-03-31T00:06:06.093Z,7.56
2018-03-31T00:07:05.681Z,7.56
2018-03-31T00:08:05.687Z,7.56
2018-03-31T00:09:05.550Z,7.62
2018-03-31T00:10:05.882Z,7.62
2018-03-31T00:11:06.743Z,7.62
2018-03-31T00:12:06.174Z,7.62
2018-03-31T00:13:11.489Z,7.62
2018-03-31T00:14:06.177Z,7.62
2018-03-31T00:15:05.874Z,7.62
2018-03-31T00:16:05.703Z,7.62
2018-03-31T00:17:06.098Z,7.56
2018-03-31T00:18:05.804Z,7.56
2018-03-31T00:19:05.939Z,7.56
2018-03-31T00:20:05.537Z,7.56
2018-03-31T00:21:06.496Z,7.56
2018-03-31T00:22:06.149Z,7.56
2018-03-31T00:23:06.413Z,7.56
2018-03-31T00:24:06.009Z,7.56
2018-03-31T00:25:05.776Z,7.56
2018-03-31T00:26:05.869Z,7.56
2018-03-31T00:27:06.415Z,7.50
2018-03-31T00:28:06.513Z,7.50
2018-03-31T00:29:06.214Z,7.50
2018-03-31T00:30:05.727Z,7.50
2018-03-31T00:31:05.705Z,7.50
2018-03-31T00:32:05.781Z,7.50
2018-03-31T00:33:06.030Z,7.50
2018-03-31T00:34:05.688Z,7.50
2018-03-31T00:35:05.697Z,7.50
2018-03-31T00:36:06.229Z,7.56
2018-03-31T00:37:05.976Z,7.56
2018-03-31T00:38:06.414Z,7.56
2018-03-31T00:39:06.439Z,7.56
2018-03-31T00:40:05.851Z,7.56
2018-03-31T00:41:06.268Z,7.56
2018-03-31T00:42:06.426Z,7.56
2018-03-31T00:43:05.771Z,7.56
2018-03-31T00:44:10.663Z,7.50
2018-03-31T00:45:06.350Z,7.50
2018-03-31T00:46:10.943Z,7.50
2018-03-31T00:47:05.620Z,7.50
2018-03-31T00:48:05.637Z,7.50
2018-03-31T00:49:05.464Z,7.50
2018-03-31T00:50:05.878Z,7.50
2018-03-31T00:51:05.825Z,7.50
2018-03-31T00:52:06.535Z,7.56
2018-03-31T00:53:06.171Z,7.56
2018-03-31T00:54:06.017Z,7.56
2018-03-31T00:55:06.435Z,7.56
2018-03-31T00:56:06.260Z,7.56
2018-03-31T00:57:06.006Z,7.56
2018-03-31T00:58:10.807Z,7.56
2018-03-31T00:59:06.503Z,7.56
2018-03-31T01:00:06.421Z,7.56
2018-03-31T01:01:05.693Z,7.56
2018-03-31T01:02:06.582Z,7.56
2018-03-31T01:03:06.178Z,7.56
2018-03-31T01:04:05.770Z,7.56
2018-03-31T01:05:05.615Z,7.56
2018-03-31T01:06:05.445Z,7.56
2018-03-31T01:07:05.615Z,7.56
2018-03-31T01:08:05.538Z,7.56
2018-03-31T01:09:06.418Z,7.56
2018-03-31T01:10:06.662Z,7.56
2018-03-31T01:11:05.686Z,7.56
2018-03-31T01:12:06.415Z,7.56
2018-03-31T01:13:06.264Z,7.56
2018-03-31T01:14:06.915Z,7.56
2018-03-31T01:15:06.431Z,7.56
2018-03-31T01:16:06.502Z,7.56
2018-03-31T01:17:06.018Z,7.50
2018-03-31T01:18:05.850Z,7.56
2018-03-31T01:19:06.024Z,7.50
2018-03-31T01:20:06.337Z,7.56
2018-03-31T01:21:05.865Z,7.56
2018-03-31T01:22:05.766Z,7.56
2018-03-31T01:23:05.864Z,7.56
2018-03-31T01:24:06.332Z,7.56
2018-03-31T01:25:06.425Z,7.56
2018-03-31T01:26:06.425Z,7.56
2018-03-31T01:27:06.084Z,7.50
2018-03-31T01:28:05.550Z,7.50
2018-03-31T01:29:06.347Z,7.50
2018-03-31T01:30:06.011Z,7.44
2018-03-31T01:31:05.773Z,7.44
2018-03-31T01:32:06.099Z,7.44
2018-03-31T01:33:06.501Z,7.44
2018-03-31T01:34:05.604Z,7.44
2018-03-31T01:35:05.543Z,7.50
2018-03-31T01:36:06.014Z,7.50
2018-03-31T01:37:06.101Z,7.50
2018-03-31T01:38:05.942Z,7.50
2018-03-31T01:39:10.858Z,7.56
2018-03-31T01:40:06.434Z,7.56
2018-03-31T01:41:05.786Z,7.56
2018-03-31T01:42:05.696Z,7.50
2018-03-31T01:43:06.586Z,7.50
2018-03-31T01:44:06.022Z,7.50
2018-03-31T01:45:05.616Z,7.50
2018-03-31T01:46:06.029Z,7.50
2018-03-31T01:47:05.699Z,7.50
2018-03-31T01:48:06.346Z,7.56
2018-03-31T01:49:06.412Z,7.56
2018-03-31T01:50:06.016Z,7.50
2018-03-31T01:51:05.774Z,7.56
2018-03-31T01:52:05.451Z,7.50
2018-03-31T01:53:05.759Z,7.50
2018-03-31T01:54:06.428Z,7.50
2018-03-31T01:55:11.293Z,7.50
2018-03-31T01:56:06.096Z,7.50
2018-03-31T01:57:05.781Z,7.50
2018-03-31T01:58:05.824Z,7.50
2018-03-31T01:59:05.719Z,7.56
2018-03-31T02:00:06.013Z,7.50
2018-03-31T02:01:05.533Z,7.50
2018-03-31T02:02:05.534Z,7.50
2018-03-31T02:03:05.531Z,7.50
2018-03-31T02:04:10.579Z,7.44
2018-03-31T02:05:06.224Z,7.44
2018-03-31T02:06:06.446Z,7.44
2018-03-31T02:07:05.820Z,7.44
2018-03-31T02:08:11.179Z,7.44
2018-03-31T02:09:05.926Z,7.44
2018-03-31T02:10:05.625Z,7.44
2018-03-31T02:11:05.785Z,7.44
2018-03-31T02:12:06.331Z,7.38
2018-03-31T02:13:06.343Z,7.38
2018-03-31T02:14:06.178Z,7.38
2018-03-31T02:15:05.776Z,7.38
2018-03-31T02:16:05.732Z,7.38
2018-03-31T02:17:05.719Z,7.38
2018-03-31T02:18:06.492Z,7.38
2018-03-31T02:19:06.325Z,7.38
2018-03-31T02:20:06.097Z,7.38
2018-03-31T02:21:05.704Z,7.31
2018-03-31T02:22:05.614Z,7.31
2018-03-31T02:23:05.569Z,7.31
2018-03-31T02:24:06.671Z,7.31
2018-03-31T02:25:06.098Z,7.31
2018-03-31T02:26:05.961Z,7.31
2018-03-31T02:27:06.107Z,7.31
2018-03-31T02:28:07.228Z,7.31
2018-03-31T02:29:06.409Z,7.25
2018-03-31T02:30:05.701Z,7.25
2018-03-31T02:31:06.260Z,7.25
2018-03-31T02:32:06.403Z,7.25
2018-03-31T02:33:11.898Z,7.25
2018-03-31T02:34:05.550Z,7.25
2018-03-31T02:35:06.345Z,7.25
2018-03-31T02:36:06.411Z,7.25
2018-03-31T02:37:05.636Z,7.25
2018-03-31T02:38:05.790Z,7.25
2018-03-31T02:39:10.820Z,7.25
2018-03-31T02:40:06.430Z,7.25
2018-03-31T02:41:11.143Z,7.25
2018-03-31T02:42:05.655Z,7.19
2018-03-31T02:43:11.457Z,7.19
2018-03-31T02:44:06.178Z,7.19
2018-03-31T02:45:06.013Z,7.19
2018-03-31T02:46:05.863Z,7.12
2018-03-31T02:47:06.424Z,7.12
2018-03-31T02:48:06.326Z,7.12
2018-03-31T02:49:05.937Z,7.12
2018-03-31T02:50:05.943Z,7.12
2018-03-31T02:51:06.489Z,7.19
2018-03-31T02:52:06.173Z,7.12
2018-03-31T02:53:10.864Z,7.06
2018-03-31T02:54:05.694Z,7.06
2018-03-31T02:55:05.693Z,7.06
2018-03-31T02:56:05.788Z,7.06
2018-03-31T02:57:06.348Z,7.06
2018-03-31T02:58:06.017Z,7.12
2018-03-31T02:59:05.851Z,7.12
2018-03-31T03:00:06.366Z,7.12
2018-03-31T03:01:07.387Z,7.12
2018-03-31T03:02:06.080Z,7.12
2018-03-31T03:03:05.852Z,7.12
2018-03-31T03:04:05.863Z,7.12
2018-03-31T03:05:05.775Z,7.06
2018-03-31T03:06:05.901Z,7.06
2018-03-31T03:07:05.866Z,7.06
2018-03-31T03:08:05.770Z,7.12
2018-03-31T03:09:05.861Z,7.12
2018-03-31T03:10:05.709Z,7.06
2018-03-31T03:11:05.624Z,7.12
2018-03-31T03:12:05.610Z,7.12
2018-03-31T03:13:06.032Z,7.06
2018-03-31T03:14:10.981Z,7.06
2018-03-31T03:15:05.699Z,7.00
2018-03-31T03:16:05.532Z,7.00
2018-03-31T03:17:05.772Z,7.00
2018-03-31T03:18:05.961Z,7.00
2018-03-31T03:19:05.759Z,7.00
2018-03-31T03:20:06.193Z,7.00
2018-03-31T03:21:06.335Z,7.00
2018-03-31T03:22:11.227Z,7.00
2018-03-31T03:23:05.934Z,7.00
2018-03-31T03:24:06.066Z,7.00
2018-03-31T03:25:05.791Z,7.00
2018-03-31T03:26:05.895Z,7.00
2018-03-31T03:27:05.536Z,7.00
2018-03-31T03:28:05.575Z,7.00
2018-03-31T03:29:11.287Z,7.00
2018-03-31T03:30:06.262Z,7.00
2018-03-31T03:31:05.796Z,7.00
2018-03-31T03:32:05.681Z,7.00
2018-03-31T03:33:06.492Z,7.00
2018-03-31T03:34:05.837Z,7.00
2018-03-31T03:35:05.702Z,7.00
2018-03-31T03:36:06.341Z,7.00
2018-03-31T03:37:06.558Z,7.00
2018-03-31T03:38:06.224Z,7.00
2018-03-31T03:39:05.859Z,7.00
2018-03-31T03:40:05.929Z,7.06
2018-03-31T03:41:06.184Z,7.06
2018-03-31T03:42:05.475Z,7.06
2018-03-31T03:43:05.475Z,7.06
2018-03-31T03:44:05.692Z,7.12
2018-03-31T03:45:10.671Z,7.06
2018-03-31T03:46:06.615Z,7.06
2018-03-31T03:47:06.015Z,7.06
2018-03-31T03:48:06.435Z,7.06
2018-03-31T03:49:06.424Z,7.12
2018-03-31T03:50:06.503Z,7.06
2018-03-31T03:51:06.258Z,7.06
2018-03-31T03:52:06.358Z,7.12
2018-03-31T03:53:10.920Z,7.12
2018-03-31T03:54:05.714Z,7.12
2018-03-31T03:55:06.102Z,7.06
2018-03-31T03:56:05.689Z,7.06
2018-03-31T03:57:06.587Z,7.06
2018-03-31T03:58:05.778Z,7.12
2018-03-31T03:59:05.771Z,7.12
2018-03-31T04:00:06.097Z,7.12
2018-03-31T04:01:06.431Z,7.12
2018-03-31T04:02:06.191Z,7.12
2018-03-31T04:03:05.936Z,7.12
2018-03-31T04:04:05.617Z,7.12
2018-03-31T04:05:10.708Z,7.12
2018-03-31T04:06:06.365Z,7.12
2018-03-31T04:07:06.190Z,7.12
2018-03-31T04:08:06.180Z,7.12
2018-03-31T04:09:05.871Z,7.12
2018-03-31T04:10:05.710Z,7.12
2018-03-31T04:11:06.406Z,7.12
2018-03-31T04:12:06.348Z,7.12
2018-03-31T04:13:05.965Z,7.12
2018-03-31T04:14:06.150Z,7.12
2018-03-31T04:15:05.819Z,7.12
2018-03-31T04:16:06.274Z,7.12
2018-03-31T04:17:05.928Z,7.19
2018-03-31T04:18:06.107Z,7.19
2018-03-31T04:19:05.641Z,7.19
2018-03-31T04:20:05.822Z,7.19
2018-03-31T04:21:06.507Z,7.19
2018-03-31T04:22:05.807Z,7.19
2018-03-31T04:23:05.658Z,7.19
2018-03-31T04:24:05.637Z,7.19
2018-03-31T04:25:05.873Z,7.19
2018-03-31T04:26:10.890Z,7.19
2018-03-31T04:27:05.553Z,7.19
2018-03-31T04:28:05.778Z,7.19
2018-03-31T04:29:05.547Z,7.19
2018-03-31T04:30:05.792Z,7.19
2018-03-31T04:31:05.782Z,7.19
2018-03-31T04:32:05.674Z,7.19
2018-03-31T04:33:06.036Z,7.19
2018-03-31T04:34:11.421Z,7.19
2018-03-31T04:35:07.085Z,7.19
2018-03-31T04:36:05.853Z,7.19
2018-03-31T04:37:05.878Z,7.19
2018-03-31T04:38:05.861Z,7.19
2018-03-31T04:39:05.713Z,7.12
2018-03-31T04:40:06.102Z,7.19
2018-03-31T04:41:05.530Z,7.19
2018-03-31T04:42:05.711Z,7.19
2018-03-31T04:43:05.692Z,7.19
2018-03-31T04:44:05.620Z,7.19
2018-03-31T04:45:06.180Z,7.19
2018-03-31T04:46:05.823Z,7.19
2018-03-31T04:47:05.655Z,7.12
2018-03-31T04:48:05.847Z,7.19
2018-03-31T04:49:05.635Z,7.19
2018-03-31T04:50:05.687Z,7.19
2018-03-31T04:51:10.626Z,7.19
2018-03-31T04:52:06.268Z,7.19
2018-03-31T04:53:05.831Z,7.19
2018-03-31T04:54:05.780Z,7.19
2018-03-31T04:55:05.700Z,7.19
2018-03-31T04:56:06.514Z,7.19
2018-03-31T04:57:06.252Z,7.19
2018-03-31T04:58:06.869Z,7.19
2018-03-31T04:59:06.408Z,7.19
2018-03-31T05:00:06.192Z,7.19
2018-03-31T05:01:06.512Z,7.19
2018-03-31T05:02:05.853Z,7.19
2018-03-31T05:03:05.711Z,7.19
2018-03-31T05:04:05.811Z,7.25
2018-03-31T05:05:11.469Z,7.25
2018-03-31T05:06:06.015Z,7.25
2018-03-31T05:07:06.886Z,7.31
2018-03-31T05:08:06.424Z,7.50
2018-03-31T05:09:05.617Z,7.69
2018-03-31T05:10:05.814Z,7.81
2018-03-31T05:11:05.859Z,7.81
2018-03-31T05:12:10.874Z,7.94
2018-03-31T05:13:10.944Z,8.00
2018-03-31T05:14:05.622Z,8.00
2018-03-31T05:15:05.924Z,8.19
2018-03-31T05:16:05.860Z,8.06
2018-03-31T05:17:11.573Z,8.12
2018-03-31T05:18:06.210Z,8.06
2018-03-31T05:19:05.462Z,7.94
2018-03-31T05:20:06.442Z,7.88
2018-03-31T05:21:06.334Z,8.00
2018-03-31T05:22:05.937Z,8.06
2018-03-31T05:23:07.012Z,8.19
2018-03-31T05:24:06.749Z,8.06
2018-03-31T05:25:06.098Z,8.25
2018-03-31T05:26:05.532Z,8.12
2018-03-31T05:27:06.252Z,8.00
2018-03-31T05:28:06.334Z,7.88
2018-03-31T05:29:05.887Z,7.81
2018-03-31T05:30:05.715Z,7.75
2018-03-31T05:31:05.789Z,7.69
2018-03-31T05:32:05.679Z,7.75
2018-03-31T05:33:05.890Z,8.06
2018-03-31T05:34:06.431Z,8.38
2018-03-31T05:35:06.211Z,8.38
2018-03-31T05:36:05.789Z,8.31
2018-03-31T05:37:06.280Z,8.12
2018-03-31T05:38:06.320Z,8.06
2018-03-31T05:39:06.363Z,8.12
2018-03-31T05:40:06.183Z,8.25
2018-03-31T05:41:05.767Z,8.12
2018-03-31T05:42:05.774Z,8.06
2018-03-31T05:43:05.791Z,8.00
2018-03-31T05:44:05.990Z,7.94
2018-03-31T05:45:10.806Z,7.94
2018-03-31T05:46:06.415Z,8.12
2018-03-31T05:47:06.424Z,8.06
2018-03-31T05:48:06.104Z,7.94
2018-03-31T05:49:06.353Z,7.88
2018-03-31T05:50:06.105Z,8.00
2018-03-31T05:51:05.943Z,8.19
2018-03-31T05:52:10.871Z,8.25
2018-03-31T05:53:06.495Z,8.12
2018-03-31T05:54:06.291Z,8.06
2018-03-31T05:55:05.651Z,8.12
2018-03-31T05:56:06.052Z,8.00
2018-03-31T05:57:10.685Z,7.94
2018-03-31T05:58:06.176Z,7.94
2018-03-31T05:59:05.776Z,7.88
2018-03-31T06:00:06.038Z,7.81
2018-03-31T06:01:05.819Z,7.75
2018-03-31T06:02:05.945Z,7.75
2018-03-31T06:03:05.940Z,7.75
2018-03-31T06:04:05.854Z,7.69
2018-03-31T06:05:05.601Z,7.75
2018-03-31T06:06:06.422Z,7.75
2018-03-31T06:07:05.940Z,7.75
2018-03-31T06:08:06.416Z,7.94
2018-03-31T06:09:06.443Z,8.25
2018-03-31T06:10:05.883Z,8.38
2018-03-31T06:11:06.743Z,8.56
2018-03-31T06:12:05.604Z,8.56
2018-03-31T06:13:06.264Z,8.62
2018-03-31T06:14:06.336Z,8.44
2018-03-31T06:15:05.861Z,8.31
2018-03-31T06:16:05.958Z,8.19
2018-03-31T06:17:05.697Z,8.12
2018-03-31T06:18:06.119Z,8.06
2018-03-31T06:19:05.698Z,8.00
2018-03-31T06:20:06.186Z,7.94
2018-03-31T06:21:06.006Z,8.06
2018-03-31T06:22:06.830Z,8.31
2018-03-31T06:23:06.112Z,8.62
2018-03-31T06:24:05.862Z,8.75
2018-03-31T06:25:06.225Z,8.69
2018-03-31T06:26:06.021Z,8.81
2018-03-31T06:27:06.111Z,8.75
2018-03-31T06:28:06.498Z,8.62
2018-03-31T06:29:05.784Z,8.50
2018-03-31T06:30:05.874Z,8.31
2018-03-31T06:31:05.876Z,8.19
2018-03-31T06:32:05.881Z,8.19
2018-03-31T06:33:06.033Z,8.12
2018-03-31T06:34:05.778Z,8.12
2018-03-31T06:35:05.694Z,8.06
2018-03-31T06:36:05.701Z,8.00
2018-03-31T06:37:05.772Z,7.94
2018-03-31T06:38:05.771Z,7.88
2018-03-31T06:39:06.535Z,7.88
2018-03-31T06:40:11.262Z,7.88
2018-03-31T06:41:05.940Z,7.81
2018-03-31T06:42:05.874Z,7.81
2018-03-31T06:43:06.414Z,7.81
2018-03-31T06:44:05.728Z,7.81
2018-03-31T06:45:06.339Z,7.81
2018-03-31T06:46:06.101Z,7.81
2018-03-31T06:47:06.095Z,7.88
2018-03-31T06:48:06.269Z,7.88
2018-03-31T06:49:05.622Z,7.88
2018-03-31T06:50:06.428Z,7.88
2018-03-31T06:51:06.424Z,7.88
2018-03-31T06:52:05.701Z,7.88
2018-03-31T06:53:05.830Z,7.81
2018-03-31T06:54:05.697Z,7.75
2018-03-31T06:55:05.773Z,7.75
2018-03-31T06:56:05.844Z,7.75
2018-03-31T06:57:06.184Z,7.69
2018-03-31T06:58:06.971Z,7.75
2018-03-31T06:59:06.211Z,7.75
2018-03-31T07:00:06.020Z,7.69
2018-03-31T07:01:05.936Z,7.69
2018-03-31T07:02:06.107Z,7.69
2018-03-31T07:03:05.780Z,7.69
2018-03-31T07:04:06.045Z,7.62
2018-03-31T07:05:06.250Z,7.69
2018-03-31T07:06:05.540Z,7.69
2018-03-31T07:07:05.595Z,7.75
2018-03-31T07:08:06.260Z,7.81
2018-03-31T07:09:06.271Z,7.88
2018-03-31T07:10:06.171Z,7.94
2018-03-31T07:11:05.863Z,7.88
2018-03-31T07:12:05.721Z,8.06
2018-03-31T07:13:05.694Z,8.00
2018-03-31T07:14:06.271Z,7.94
2018-03-31T07:15:06.335Z,7.88
2018-03-31T07:16:11.289Z,7.88
2018-03-31T07:17:06.345Z,7.81
2018-03-31T07:18:06.256Z,7.94
2018-03-31T07:19:06.048Z,7.88
2018-03-31T07:20:05.855Z,7.88
2018-03-31T07:21:05.619Z,7.81
2018-03-31T07:22:05.623Z,7.81
2018-03-31T07:23:05.783Z,7.81
2018-03-31T07:24:05.940Z,7.81
2018-03-31T07:25:05.928Z,7.75
2018-03-31T07:26:06.078Z,7.75
2018-03-31T07:27:05.615Z,7.75
2018-03-31T07:28:06.251Z,7.75
2018-03-31T07:29:05.975Z,7.81
2018-03-31T07:30:05.857Z,7.81
2018-03-31T07:31:07.448Z,7.94
2018-03-31T07:32:06.558Z,8.12
2018-03-31T07:33:06.190Z,8.12
2018-03-31T07:34:05.927Z,8.12
2018-03-31T07:35:05.993Z,8.06
2018-03-31T07:36:05.461Z,8.06
2018-03-31T07:37:06.349Z,8.06
2018-03-31T07:38:05.930Z,8.00
2018-03-31T07:39:05.623Z,8.12
2018-03-31T07:40:06.339Z,8.25
2018-03-31T07:41:05.943Z,8.44
2018-03-31T07:42:06.296Z,8.69
2018-03-31T07:43:06.192Z,8.62
2018-03-31T07:44:06.351Z,8.50
2018-03-31T07:45:06.100Z,8.44
2018-03-31T07:46:06.121Z,8.38
2018-03-31T07:47:05.950Z,8.31
2018-03-31T07:48:10.823Z,8.25
2018-03-31T07:49:06.567Z,8.19
2018-03-31T07:50:06.068Z,8.19
2018-03-31T07:51:06.101Z,8.12
2018-03-31T07:52:06.339Z,8.12
2018-03-31T07:53:06.341Z,8.12
2018-03-31T07:54:06.275Z,8.06
2018-03-31T07:55:06.259Z,8.06
2018-03-31T07:56:05.962Z,8.06
2018-03-31T07:57:06.043Z,8.00
2018-03-31T07:58:06.345Z,8.00
2018-03-31T07:59:05.626Z,8.00
2018-03-31T08:00:05.629Z,8.00
2018-03-31T08:01:05.544Z,8.00
2018-03-31T08:02:05.616Z,7.94
2018-03-31T08:03:06.247Z,7.94
2018-03-31T08:04:06.034Z,7.94
2018-03-31T08:05:06.261Z,7.94
2018-03-31T08:06:05.929Z,7.94
2018-03-31T08:07:06.477Z,8.00
2018-03-31T08:08:06.204Z,8.00
2018-03-31T08:09:06.416Z,8.00
2018-03-31T08:10:06.190Z,8.00
2018-03-31T08:11:05.952Z,8.00
2018-03-31T08:12:05.648Z,8.00
2018-03-31T08:13:06.416Z,8.00
2018-03-31T08:14:06.049Z,8.00
2018-03-31T08:15:05.687Z,8.00
2018-03-31T08:16:06.300Z,8.00
2018-03-31T08:17:06.260Z,7.94
2018-03-31T08:18:06.418Z,8.00
2018-03-31T08:19:06.024Z,8.00
2018-03-31T08:20:05.546Z,8.00
2018-03-31T08:21:06.632Z,7.94
2018-03-31T08:22:06.183Z,7.94
2018-03-31T08:23:06.041Z,8.00
2018-03-31T08:24:06.177Z,7.94
2018-03-31T08:25:06.267Z,8.00
2018-03-31T08:26:06.014Z,7.94
2018-03-31T08:27:05.995Z,7.94
2018-03-31T08:28:05.928Z,8.12
2018-03-31T08:29:06.440Z,8.12
2018-03-31T08:30:11.215Z,8.06
2018-03-31T08:31:05.944Z,8.06
2018-03-31T08:32:06.485Z,8.06
2018-03-31T08:33:06.349Z,8.06
2018-03-31T08:34:05.696Z,8.06
2018-03-31T08:35:05.485Z,8.06
2018-03-31T08:36:06.153Z,8.00
2018-03-31T08:37:05.945Z,8.00
2018-03-31T08:38:05.949Z,8.00
2018-03-31T08:39:06.010Z,8.00
2018-03-31T08:40:05.696Z,8.00
2018-03-31T08:41:06.336Z,8.00
2018-03-31T08:42:06.585Z,8.00
2018-03-31T08:43:05.783Z,7.94
2018-03-31T08:44:05.841Z,7.94
2018-03-31T08:45:05.700Z,7.94
2018-03-31T08:46:05.936Z,8.00
2018-03-31T08:47:05.981Z,8.00
2018-03-31T08:48:05.961Z,7.94
2018-03-31T08:49:05.978Z,8.00
2018-03-31T08:50:06.028Z,8.00
2018-03-31T08:51:05.862Z,8.00
2018-03-31T08:52:06.103Z,8.00
2018-03-31T08:53:06.020Z,8.00
2018-03-31T08:54:05.950Z,8.00
2018-03-31T08:55:05.757Z,8.00
2018-03-31T08:56:05.720Z,8.00
2018-03-31T08:57:05.948Z,8.06
2018-03-31T08:58:06.402Z,8.06
2018-03-31T08:59:06.024Z,8.06
2018-03-31T09:00:05.541Z,8.06
2018-03-31T09:01:05.779Z,8.06
2018-03-31T09:02:06.176Z,8.06
2018-03-31T09:03:05.963Z,8.06
2018-03-31T09:04:06.267Z,8.19
2018-03-31T09:05:05.965Z,8.19
2018-03-31T09:06:06.423Z,8.31
2018-03-31T09:07:06.419Z,8.31
2018-03-31T09:08:06.040Z,8.31
2018-03-31T09:09:06.844Z,8.25
2018-03-31T09:10:06.098Z,8.25
2018-03-31T09:11:06.045Z,8.25
2018-03-31T09:12:05.558Z,8.19
2018-03-31T09:13:06.075Z,8.19
2018-03-31T09:14:06.017Z,8.19
2018-03-31T09:15:06.034Z,8.19
2018-03-31T09:16:06.194Z,8.19
2018-03-31T09:17:06.338Z,8.19
2018-03-31T09:18:06.242Z,8.19
2018-03-31T09:19:06.186Z,8.19
2018-03-31T09:20:05.869Z,8.19
2018-03-31T09:21:05.965Z,8.25
2018-03-31T09:22:06.003Z,8.25
2018-03-31T09:23:05.992Z,8.31
2018-03-31T09:24:06.183Z,8.38
2018-03-31T09:25:06.185Z,8.44
2018-03-31T09:26:06.201Z,8.44
2018-03-31T09:27:10.993Z,8.44
2018-03-31T09:28:05.710Z,8.50
2018-03-31T09:29:06.117Z,8.62
2018-03-31T09:30:05.936Z,8.62
2018-03-31T09:31:11.011Z,8.75
2018-03-31T09:32:05.538Z,8.81
2018-03-31T09:33:05.734Z,8.81
2018-03-31T09:34:05.955Z,8.88
2018-03-31T09:35:06.508Z,8.88
2018-03-31T09:36:06.425Z,8.94
2018-03-31T09:37:05.474Z,8.94
2018-03-31T09:38:05.715Z,8.94
2018-03-31T09:39:05.876Z,9.00
2018-03-31T09:40:10.672Z,9.00
2018-03-31T09:41:05.929Z,9.06
2018-03-31T09:42:10.982Z,9.06
2018-03-31T09:43:05.560Z,9.12
2018-03-31T09:44:06.257Z,9.12
2018-03-31T09:45:05.805Z,9.19
2018-03-31T09:46:05.776Z,9.19
2018-03-31T09:47:06.266Z,9.25
2018-03-31T09:48:06.011Z,9.25
2018-03-31T09:49:06.184Z,9.31
2018-03-31T09:50:06.100Z,9.31
2018-03-31T09:51:05.882Z,9.38
2018-03-31T09:52:06.091Z,9.38
2018-03-31T09:53:10.782Z,9.44
2018-03-31T09:54:06.569Z,9.44
2018-03-31T09:55:06.102Z,9.44
2018-03-31T09:56:11.219Z,9.44
2018-03-31T09:57:05.792Z,9.44
2018-03-31T09:58:11.511Z,9.50
2018-03-31T09:59:06.173Z,9.50
2018-03-31T10:00:06.263Z,9.44
2018-03-31T10:01:05.698Z,9.44
2018-03-31T10:02:06.342Z,9.44
2018-03-31T10:03:06.829Z,9.44
2018-03-31T10:04:05.624Z,9.44
2018-03-31T10:05:05.617Z,9.44
2018-03-31T10:06:05.625Z,9.44
2018-03-31T10:07:05.536Z,9.44
2018-03-31T10:08:06.291Z,9.38
2018-03-31T10:09:06.285Z,9.38
2018-03-31T10:10:06.062Z,9.38
2018-03-31T10:11:05.642Z,9.38
2018-03-31T10:12:05.711Z,9.38
2018-03-31T10:13:05.886Z,9.38
2018-03-31T10:14:06.453Z,9.38
2018-03-31T10:15:06.189Z,9.38
2018-03-31T10:16:06.253Z,9.38
2018-03-31T10:17:06.031Z,9.38
2018-03-31T10:18:05.780Z,9.31
2018-03-31T10:19:05.604Z,9.31
2018-03-31T10:20:05.538Z,9.31
2018-03-31T10:21:05.703Z,9.31
2018-03-31T10:22:05.794Z,9.25
2018-03-31T10:23:05.853Z,9.25
2018-03-31T10:24:06.348Z,9.25
2018-03-31T10:25:06.097Z,9.25
2018-03-31T10:26:06.054Z,9.25
2018-03-31T10:27:05.879Z,9.25
2018-03-31T10:28:06.013Z,9.25
2018-03-31T10:29:06.299Z,9.25
2018-03-31T10:30:05.874Z,9.31
2018-03-31T10:31:06.258Z,9.31
2018-03-31T10:32:11.302Z,9.31
2018-03-31T10:33:05.802Z,9.38
2018-03-31T10:34:06.184Z,9.44
2018-03-31T10:35:05.782Z,9.44
2018-03-31T10:36:05.536Z,9.50
2018-03-31T10:37:06.264Z,9.50
2018-03-31T10:38:06.081Z,9.56
2018-03-31T10:39:06.222Z,9.62
2018-03-31T10:40:06.098Z,9.62
2018-03-31T10:41:06.120Z,9.69
2018-03-31T10:42:05.937Z,9.69
2018-03-31T10:43:05.619Z,9.69
2018-03-31T10:44:05.630Z,9.69
2018-03-31T10:45:06.234Z,9.75
2018-03-31T10:46:06.022Z,9.75
2018-03-31T10:47:06.261Z,9.75
2018-03-31T10:48:05.948Z,9.75
2018-03-31T10:49:06.339Z,9.75
2018-03-31T10:50:06.193Z,9.75
2018-03-31T10:51:16.223Z,9.75
2018-03-31T10:52:05.861Z,9.75
2018-03-31T10:53:06.097Z,9.75
2018-03-31T10:54:06.057Z,9.75
2018-03-31T10:55:05.858Z,9.75
2018-03-31T10:56:11.039Z,9.75
2018-03-31T10:57:05.707Z,9.75
2018-03-31T10:58:05.961Z,9.81
2018-03-31T10:59:05.705Z,9.81
2018-03-31T11:00:06.028Z,9.81
2018-03-31T11:01:16.057Z,9.88
2018-03-31T11:02:05.708Z,9.81
2018-03-31T11:03:11.364Z,9.88
2018-03-31T11:04:06.126Z,9.81
2018-03-31T11:05:05.796Z,9.81
2018-03-31T11:06:06.260Z,9.81
2018-03-31T11:07:06.332Z,9.81
2018-03-31T11:08:06.025Z,9.81
2018-03-31T11:09:11.204Z,9.81
2018-03-31T11:10:05.931Z,9.88
2018-03-31T11:11:05.598Z,9.94
2018-03-31T11:12:05.711Z,9.88
2018-03-31T11:13:10.866Z,9.88
2018-03-31T11:14:05.580Z,9.88
2018-03-31T11:15:05.992Z,9.88
2018-03-31T11:16:05.546Z,9.88
2018-03-31T11:17:06.277Z,9.81
2018-03-31T11:18:06.222Z,9.81
2018-03-31T11:19:06.330Z,9.88
2018-03-31T11:20:06.350Z,9.88
2018-03-31T11:21:05.874Z,9.88
2018-03-31T11:22:05.680Z,9.88
2018-03-31T11:23:06.428Z,9.88
2018-03-31T11:24:11.417Z,9.88
2018-03-31T11:25:06.039Z,9.88
2018-03-31T11:26:05.812Z,9.88
2018-03-31T11:27:05.769Z,9.94
2018-03-31T11:28:06.587Z,9.94
2018-03-31T11:29:06.090Z,9.94
2018-03-31T11:30:05.934Z,10.00
2018-03-31T11:31:05.948Z,9.94
2018-03-31T11:32:05.948Z,9.94
2018-03-31T11:33:10.900Z,9.94
2018-03-31T11:34:06.422Z,9.94
2018-03-31T11:35:06.266Z,9.94
2018-03-31T11:36:06.149Z,9.94
2018-03-31T11:37:06.022Z,9.94
2018-03-31T11:38:05.627Z,9.88
2018-03-31T11:39:10.747Z,9.88
2018-03-31T11:40:06.367Z,9.88
2018-03-31T11:41:06.100Z,9.88
2018-03-31T11:42:06.164Z,9.81
2018-03-31T11:43:05.953Z,9.81
2018-03-31T11:44:06.020Z,9.75
2018-03-31T11:45:05.936Z,9.75
2018-03-31T11:46:11.000Z,9.81
2018-03-31T11:47:05.547Z,9.75
2018-03-31T11:48:05.872Z,9.75
2018-03-31T11:49:05.941Z,9.75
2018-03-31T11:50:06.417Z,9.75
2018-03-31T11:51:06.490Z,9.75
2018-03-31T11:52:06.502Z,9.69
2018-03-31T11:53:05.935Z,9.69
2018-03-31T11:54:10.586Z,9.69
2018-03-31T11:55:06.329Z,9.69
2018-03-31T11:56:06.249Z,9.62
2018-03-31T11:57:05.945Z,9.62
2018-03-31T11:58:06.444Z,9.62
2018-03-31T11:59:06.090Z,9.56
2018-03-31T12:00:06.085Z,9.56
2018-03-31T12:01:06.039Z,9.50
2018-03-31T12:02:06.342Z,9.50
2018-03-31T12:03:06.255Z,9.50
2018-03-31T12:04:06.491Z,9.50
2018-03-31T12:05:06.324Z,9.50
2018-03-31T12:06:06.278Z,9.50
2018-03-31T12:07:06.999Z,9.50
2018-03-31T12:08:05.629Z,9.50
2018-03-31T12:09:06.254Z,9.50
2018-03-31T12:10:06.100Z,9.50
2018-03-31T12:11:05.953Z,9.56
2018-03-31T12:12:06.097Z,9.56
2018-03-31T12:13:05.983Z,9.56
2018-03-31T12:14:05.964Z,9.62
2018-03-31T12:15:06.341Z,9.62
2018-03-31T12:16:05.788Z,9.62
2018-03-31T12:17:06.449Z,9.69
2018-03-31T12:18:06.579Z,9.69
2018-03-31T12:19:06.349Z,9.69
2018-03-31T12:20:06.187Z,9.75
2018-03-31T12:21:05.999Z,9.75
2018-03-31T12:22:06.343Z,9.81
2018-03-31T12:23:05.866Z,9.81
2018-03-31T12:24:11.388Z,9.81
2018-03-31T12:25:06.034Z,9.88
2018-03-31T12:26:06.035Z,9.88
2018-03-31T12:27:06.300Z,9.88
2018-03-31T12:28:06.184Z,9.88
2018-03-31T12:29:05.784Z,9.94
2018-03-31T12:30:07.270Z,9.94
2018-03-31T12:31:05.613Z,10.00
2018-03-31T12:32:05.944Z,10.00
2018-03-31T12:33:05.938Z,10.00
2018-03-31T12:34:06.034Z,10.00
2018-03-31T12:35:05.462Z,9.94
2018-03-31T12:36:06.422Z,10.00
2018-03-31T12:37:06.930Z,10.00
2018-03-31T12:38:06.013Z,10.00
2018-03-31T12:39:05.533Z,10.00
2018-03-31T12:40:06.273Z,10.00
2018-03-31T12:41:06.291Z,10.00
2018-03-31T12:42:05.947Z,10.00
2018-03-31T12:43:06.090Z,10.00
2018-03-31T12:44:05.876Z,10.06
2018-03-31T12:45:06.101Z,10.00
2018-03-31T12:46:06.016Z,10.00
2018-03-31T12:47:06.024Z,10.00
2018-03-31T12:48:06.018Z,10.00
2018-03-31T12:49:06.114Z,10.00
2018-03-31T12:50:06.096Z,10.00
2018-03-31T12:51:06.764Z,10.00
2018-03-31T12:52:06.258Z,10.00
2018-03-31T12:53:11.276Z,10.00
2018-03-31T12:54:05.981Z,10.00
2018-03-31T12:55:06.594Z,10.00
2018-03-31T12:56:07.111Z,10.00
2018-03-31T12:57:06.250Z,10.00
2018-03-31T12:58:06.335Z,10.00
2018-03-31T12:59:11.198Z,10.00
2018-03-31T13:00:05.802Z,10.00
2018-03-31T13:01:05.698Z,10.00
2018-03-31T13:02:05.803Z,10.00
2018-03-31T13:03:05.671Z,10.00
2018-03-31T13:04:06.279Z,10.00
2018-03-31T13:05:06.210Z,10.00
2018-03-31T13:06:06.441Z,10.00
2018-03-31T13:07:06.496Z,10.00
2018-03-31T13:08:05.881Z,10.00
2018-03-31T13:09:06.175Z,10.00
2018-03-31T13:10:06.194Z,10.00
2018-03-31T13:11:11.136Z,9.94
2018-03-31T13:12:05.945Z,9.94
2018-03-31T13:13:06.138Z,10.00
2018-03-31T13:14:05.874Z,9.94
2018-03-31T13:15:06.336Z,9.94
2018-03-31T13:16:06.370Z,9.94
2018-03-31T13:17:06.449Z,9.94